createdAt,value
2018-08-25T00:01:08.617Z,99879.92
2018-08-25T00:03:36.713Z,99878.16
2018-08-25T00:06:04.853Z,99878.37
2018-08-25T00:08:32.932Z,99878.75
2018-08-25T00:11:01.725Z,99866.87
2018-08-25T00:13:29.828Z,99870.45
2018-08-25T00:15:57.896Z,99861.70
2018-08-25T00:18:26.028Z,99861.70
2018-08-25T00:20:54.156Z,99859.93
2018-08-25T00:23:22.315Z,99857.15
2018-08-25T00:25:50.383Z,99859.34
2018-08-25T00:28:18.424Z,99854.79
2018-08-25T00:30:51.827Z,99847.84
2018-08-25T00:33:19.970Z,99838.09
2018-08-25T00:35:48.023Z,99832.33
2018-08-25T00:38:16.126Z,99829.56
2018-08-25T00:40:44.239Z,99830.18
2018-08-25T00:43:12.298Z,99825.22
2018-08-25T00:45:40.352Z,99823.23
2018-08-25T00:48:08.394Z,99820.45
2018-08-25T00:50:36.443Z,99824.41
2018-08-25T00:53:04.526Z,99819.23
2018-08-25T00:55:32.523Z,99817.05
2018-08-25T00:58:00.570Z,99814.27
2018-08-25T01:00:29.004Z,99814.27
2018-08-25T01:02:57.137Z,99814.68
2018-08-25T01:05:25.283Z,99815.27
2018-08-25T01:07:53.386Z,99810.30
2018-08-25T01:10:21.476Z,99810.13
2018-08-25T01:12:49.520Z,99807.95
2018-08-25T01:15:17.603Z,99800.79
2018-08-25T01:17:45.667Z,99799.99
2018-08-25T01:20:13.743Z,99790.88
2018-08-25T01:22:52.833Z,99789.50
2018-08-25T01:25:20.939Z,99784.91
2018-08-25T01:27:49.055Z,99781.15
2018-08-25T01:30:17.075Z,99786.48
2018-08-25T01:32:45.733Z,99781.34
2018-08-25T01:35:13.825Z,99779.16
2018-08-25T01:37:41.901Z,99788.30
2018-08-25T01:40:09.949Z,99774.41
2018-08-25T01:42:38.039Z,99777.02
2018-08-25T01:45:06.129Z,99781.79
2018-08-25T01:47:34.194Z,99764.58
2018-08-25T01:50:02.256Z,99773.12
2018-08-25T01:52:30.349Z,99771.91
2018-08-25T01:54:58.441Z,99762.42
2018-08-25T01:57:26.490Z,99764.62
2018-08-25T01:59:54.524Z,99771.77
2018-08-25T02:02:22.599Z,99769.41
2018-08-25T02:04:50.636Z,99762.25
2018-08-25T02:07:18.744Z,99765.44
2018-08-25T02:09:46.779Z,99764.85
2018-08-25T02:12:14.860Z,99756.34
2018-08-25T02:14:42.921Z,99754.53
2018-08-25T02:17:11.010Z,99753.56
2018-08-25T02:19:39.118Z,99745.61
2018-08-25T02:22:07.231Z,99740.86
2018-08-25T02:24:35.340Z,99743.84
2018-08-25T02:27:03.513Z,99743.25
2018-08-25T02:29:31.580Z,99738.87
2018-08-25T02:31:59.652Z,99736.71
2018-08-25T02:34:27.728Z,99730.91
2018-08-25T02:36:55.825Z,99736.67
2018-08-25T02:39:23.920Z,99736.08
2018-08-25T02:41:51.982Z,99734.50
2018-08-25T02:44:20.031Z,99733.31
2018-08-25T02:46:48.084Z,99723.39
2018-08-25T02:49:16.134Z,99718.82
2018-08-25T02:51:44.240Z,99715.07
2018-08-25T02:54:12.349Z,99714.86
2018-08-25T02:56:40.408Z,99710.91
2018-08-25T02:59:08.487Z,99708.13
2018-08-25T03:01:36.564Z,99697.63
2018-08-25T03:04:04.649Z,99694.44
2018-08-25T03:06:32.695Z,99689.09
2018-08-25T03:09:00.787Z,99680.36
2018-08-25T03:11:28.847Z,99685.32
2018-08-25T03:13:56.948Z,99684.97
2018-08-25T03:16:25.015Z,99682.96
2018-08-25T03:18:53.106Z,99689.72
2018-08-25T03:21:21.210Z,99680.98
2018-08-25T03:23:49.241Z,99678.59
2018-08-25T03:26:17.305Z,99675.84
2018-08-25T03:28:45.360Z,99677.02
2018-08-25T03:31:13.468Z,99673.07
2018-08-25T03:33:41.580Z,99668.70
2018-08-25T03:36:09.660Z,99672.86
2018-08-25T03:38:37.737Z,99669.08
2018-08-25T03:41:06.565Z,99661.34
2018-08-25T03:43:34.603Z,99655.62
2018-08-25T03:46:02.679Z,99657.80
2018-08-25T03:48:30.737Z,99649.86
2018-08-25T03:50:58.837Z,99652.42
2018-08-25T03:53:26.888Z,99657.98
2018-08-25T03:55:54.950Z,99654.02
2018-08-25T03:58:23.010Z,99649.27
2018-08-25T04:00:51.153Z,99652.05
2018-08-25T04:03:19.208Z,99649.47
2018-08-25T04:05:47.299Z,99640.73
2018-08-25T04:08:15.337Z,99636.39
2018-08-25T04:10:43.596Z,99636.57
2018-08-25T04:13:11.657Z,99626.44
2018-08-25T04:15:40.260Z,99626.67
2018-08-25T04:18:08.317Z,99625.88
2018-08-25T04:20:36.484Z,99616.34
2018-08-25T04:23:04.670Z,99612.56
2018-08-25T04:25:32.767Z,99609.60
2018-08-25T04:28:00.835Z,99606.79
2018-08-25T04:30:28.901Z,99602.83
2018-08-25T04:32:56.971Z,99605.02
2018-08-25T04:35:25.028Z,99601.44
2018-08-25T04:37:53.099Z,99606.19
2018-08-25T04:40:21.352Z,99600.05
2018-08-25T04:42:49.460Z,99599.84
2018-08-25T04:45:17.539Z,99595.88
2018-08-25T04:47:45.647Z,99594.45
2018-08-25T04:50:13.701Z,99594.06
2018-08-25T04:52:41.796Z,99587.70
2018-08-25T04:55:09.878Z,99596.41
2018-08-25T04:57:37.967Z,99586.69
2018-08-25T05:00:06.092Z,99588.45
2018-08-25T05:02:34.145Z,99585.67
2018-08-25T05:05:02.246Z,99582.28
2018-08-25T05:07:30.380Z,99587.80
2018-08-25T05:09:58.426Z,99601.08
2018-08-25T05:12:26.504Z,99624.70
2018-08-25T05:14:54.594Z,99624.34
2018-08-25T05:17:22.712Z,99631.77
2018-08-25T05:19:50.863Z,99630.81
2018-08-25T05:22:18.979Z,99628.47
2018-08-25T05:24:47.088Z,99624.31
2018-08-25T05:27:15.160Z,99617.97
2018-08-25T05:29:43.316Z,99640.95
2018-08-25T05:32:11.474Z,99660.72
2018-08-25T05:34:39.565Z,99659.27
2018-08-25T05:37:07.653Z,99662.16
2018-08-25T05:39:35.746Z,99659.73
2018-08-25T05:42:03.812Z,99660.26
2018-08-25T05:44:31.880Z,99663.37
2018-08-25T05:46:59.954Z,99656.56
2018-08-25T05:49:28.021Z,99652.97
2018-08-25T05:51:56.096Z,99651.95
2018-08-25T05:54:24.158Z,99651.16
2018-08-25T05:56:52.244Z,99651.50
2018-08-25T05:59:20.293Z,99646.12
2018-08-25T06:01:48.360Z,99641.17
2018-08-25T06:04:16.479Z,99594.77
2018-08-25T06:06:44.641Z,99635.06
2018-08-25T06:09:13.297Z,99638.84
2018-08-25T06:11:42.111Z,99648.70
2018-08-25T06:14:11.166Z,99640.86
2018-08-25T06:16:39.253Z,99647.59
2018-08-25T06:19:07.375Z,99644.45
2018-08-25T06:21:35.453Z,99646.81
2018-08-25T06:24:03.532Z,99649.03
2018-08-25T06:26:31.628Z,99647.64
2018-08-25T06:28:59.734Z,99650.41
2018-08-25T06:31:27.888Z,99640.94
2018-08-25T06:33:55.953Z,99631.65
2018-08-25T06:36:24.005Z,99644.50
2018-08-25T06:38:52.109Z,99641.55
2018-08-25T06:41:20.147Z,99636.02
2018-08-25T06:43:48.218Z,99639.58
2018-08-25T06:46:16.311Z,99634.81
2018-08-25T06:48:44.361Z,99644.29
2018-08-25T06:51:12.435Z,99636.15
2018-08-25T06:53:40.503Z,99634.20
2018-08-25T06:56:08.537Z,99637.21
2018-08-25T06:58:36.580Z,99637.05
2018-08-25T07:01:04.645Z,99636.74
2018-08-25T07:03:33.275Z,99620.98
2018-08-25T07:06:01.370Z,99627.55
2018-08-25T07:08:29.449Z,99633.72
2018-08-25T07:10:57.505Z,99622.02
2018-08-25T07:13:25.535Z,99630.96
2018-08-25T07:15:53.620Z,99632.22
2018-08-25T07:18:21.694Z,99636.41
2018-08-25T07:20:49.748Z,99629.09
2018-08-25T07:23:17.855Z,99637.44
2018-08-25T07:25:46.099Z,99642.39
2018-08-25T07:28:14.111Z,99640.65
2018-08-25T07:30:42.173Z,99634.27
2018-08-25T07:33:10.228Z,99649.77
2018-08-25T07:35:38.298Z,99650.69
2018-08-25T07:38:06.413Z,99649.97
2018-08-25T07:40:34.464Z,99655.31
2018-08-25T07:43:02.615Z,99656.36
2018-08-25T07:45:30.691Z,99659.00
2018-08-25T07:47:58.787Z,99656.97
2018-08-25T07:50:26.886Z,99657.98
2018-08-25T07:52:54.959Z,99664.44
2018-08-25T07:55:23.016Z,99665.14
2018-08-25T07:57:51.064Z,99661.95
2018-08-25T08:00:19.138Z,99663.36
2018-08-25T08:02:47.250Z,99665.89
2018-08-25T08:05:15.347Z,99669.16
2018-08-25T08:07:43.406Z,99673.13
2018-08-25T08:10:12.216Z,99668.47
2018-08-25T08:12:40.305Z,99664.56
2018-08-25T08:15:08.362Z,99676.09
2018-08-25T08:17:36.433Z,99589.05
2018-08-25T08:20:04.551Z,99677.19
2018-08-25T08:22:32.755Z,99686.77
2018-08-25T08:25:00.785Z,99682.68
2018-08-25T08:27:28.827Z,99668.69
2018-08-25T08:29:56.904Z,99673.70
2018-08-25T08:32:24.984Z,99684.98
2018-08-25T08:34:53.068Z,99682.90
2018-08-25T08:37:21.134Z,99686.59
2018-08-25T08:39:49.191Z,99696.23
2018-08-25T08:42:17.400Z,99700.50
2018-08-25T08:44:45.416Z,99688.44
2018-08-25T08:47:13.493Z,99685.97
2018-08-25T08:49:46.749Z,99687.82
2018-08-25T08:52:09.652Z,99696.28
2018-08-25T08:54:37.731Z,99681.93
2018-08-25T08:57:05.807Z,99683.16
2018-08-25T08:59:33.884Z,99696.91
2018-08-25T09:02:01.966Z,99684.17
2018-08-25T09:04:30.060Z,99703.74
2018-08-25T09:06:58.111Z,99706.00
2018-08-25T09:09:26.200Z,99710.52
2018-08-25T09:11:54.340Z,99700.39
2018-08-25T09:14:22.343Z,99701.59
2018-08-25T09:16:50.450Z,99697.30
2018-08-25T09:19:18.587Z,99697.30
2018-08-25T09:21:46.607Z,99692.17
2018-08-25T09:24:14.692Z,99695.66
2018-08-25T09:26:42.840Z,99703.08
2018-08-25T09:29:11.023Z,99705.18
2018-08-25T09:31:39.067Z,99732.60
2018-08-25T09:34:07.188Z,99739.36
2018-08-25T09:36:35.463Z,99732.70
2018-08-25T09:39:03.496Z,99754.21
2018-08-25T09:41:31.616Z,99748.39
2018-08-25T09:43:59.692Z,99753.12
2018-08-25T09:46:27.824Z,99758.20
2018-08-25T09:48:55.893Z,99757.34
2018-08-25T09:51:24.383Z,99756.64
2018-08-25T09:53:52.455Z,99764.09
2018-08-25T09:56:20.536Z,99761.27
2018-08-25T09:58:48.615Z,99773.69
2018-08-25T10:01:22.056Z,99772.03
2018-08-25T10:03:50.131Z,99771.94
2018-08-25T10:06:18.208Z,99778.19
2018-08-25T10:08:46.272Z,99782.70
2018-08-25T10:11:14.362Z,99790.72
2018-08-25T10:13:42.429Z,99793.09
2018-08-25T10:16:10.499Z,99792.97
2018-08-25T10:18:38.632Z,99796.36
2018-08-25T10:21:06.795Z,99803.53
2018-08-25T10:23:34.928Z,99802.55
2018-08-25T10:26:02.960Z,99802.95
2018-08-25T10:28:31.063Z,99809.72
2018-08-25T10:30:59.279Z,99795.75
2018-08-25T10:33:27.397Z,99797.89
2018-08-25T10:35:55.509Z,99800.39
2018-08-25T10:38:23.583Z,99798.65
2018-08-25T10:40:51.654Z,99803.80
2018-08-25T10:43:20.310Z,99799.66
2018-08-25T10:45:48.430Z,99793.77
2018-08-25T10:48:16.534Z,99797.97
2018-08-25T10:50:44.742Z,99788.91
2018-08-25T10:53:12.976Z,99797.27
2018-08-25T10:55:41.102Z,99800.85
2018-08-25T10:58:09.391Z,99800.45
2018-08-25T11:00:37.782Z,99801.09
2018-08-25T11:03:05.791Z,99797.13
2018-08-25T11:05:33.957Z,99801.55
2018-08-25T11:08:02.029Z,99802.52
2018-08-25T11:10:30.669Z,99801.70
2018-08-25T11:12:58.788Z,99804.07
2018-08-25T11:15:27.548Z,99809.38
2018-08-25T11:17:55.678Z,99808.58
2018-08-25T11:20:23.869Z,99808.61
2018-08-25T11:22:51.988Z,99809.20
2018-08-25T11:25:20.080Z,99809.63
2018-08-25T11:27:48.136Z,99811.40
2018-08-25T11:30:16.203Z,99819.91
2018-08-25T11:32:44.309Z,99817.07
2018-08-25T11:35:12.367Z,99809.07
2018-08-25T11:37:40.497Z,99816.16
2018-08-25T11:40:08.481Z,99815.91
2018-08-25T11:42:36.591Z,99818.84
2018-08-25T11:45:05.129Z,99815.38
2018-08-25T11:47:33.207Z,99813.30
2018-08-25T11:50:01.272Z,99818.84
2018-08-25T11:52:29.332Z,99815.21
2018-08-25T11:54:57.391Z,99814.56
2018-08-25T11:57:25.446Z,99815.95
2018-08-25T11:59:53.491Z,99810.81
2018-08-25T12:02:21.638Z,99815.41
2018-08-25T12:04:49.648Z,99821.58
2018-08-25T12:07:17.731Z,99823.92
2018-08-25T12:09:45.911Z,99826.63
2018-08-25T12:12:14.033Z,99816.42
2018-08-25T12:14:42.172Z,99821.72
2018-08-25T12:17:10.473Z,99825.73
2018-08-25T12:19:38.553Z,99828.27
2018-08-25T12:22:06.795Z,99832.37
2018-08-25T12:24:34.872Z,99830.47
2018-08-25T12:27:03.551Z,99828.36
2018-08-25T12:29:32.122Z,99830.86
2018-08-25T12:32:00.632Z,99830.23
2018-08-25T12:34:29.151Z,99825.39
2018-08-25T12:36:57.207Z,99830.00
2018-08-25T12:39:25.475Z,99832.80
2018-08-25T12:41:53.534Z,99828.81
2018-08-25T12:44:22.363Z,99821.77
2018-08-25T12:46:51.872Z,99835.13
2018-08-25T12:49:20.890Z,99834.84
2018-08-25T12:51:51.267Z,99835.13
2018-08-25T12:54:19.359Z,99837.06
2018-08-25T12:56:47.524Z,99836.50
2018-08-25T12:59:15.790Z,99839.44
2018-08-25T13:01:44.035Z,99844.81
2018-08-25T13:04:12.464Z,99838.17
2018-08-25T13:06:40.803Z,99835.11
2018-08-25T13:09:10.008Z,99831.01
2018-08-25T13:11:39.051Z,99830.30
2018-08-25T13:14:07.535Z,99831.50
2018-08-25T13:16:35.878Z,99833.92
2018-08-25T13:19:04.244Z,99836.24
2018-08-25T13:21:32.331Z,99844.98
2018-08-25T13:24:00.539Z,99829.73
2018-08-25T13:26:29.439Z,99832.80
2018-08-25T13:28:57.629Z,99837.16
2018-08-25T13:31:25.931Z,99832.08
2018-08-25T13:33:54.123Z,99825.81
2018-08-25T13:36:22.336Z,99835.52
2018-08-25T13:38:50.403Z,99838.20
2018-08-25T13:41:18.639Z,99835.36
2018-08-25T13:43:46.886Z,99839.32
2018-08-25T13:46:15.459Z,99835.42
2018-08-25T13:48:43.911Z,99845.32
2018-08-25T13:51:12.037Z,99839.17
2018-08-25T13:53:40.023Z,99843.37
2018-08-25T13:56:08.060Z,99846.84
2018-08-25T13:58:36.195Z,99837.28
2018-08-25T14:01:04.269Z,99852.55
2018-08-25T14:03:32.431Z,99864.84
2018-08-25T14:06:00.483Z,99878.66
2018-08-25T14:08:28.716Z,99883.63
2018-08-25T14:10:56.595Z,99910.11
2018-08-25T14:13:24.838Z,99914.02
2018-08-25T14:15:52.918Z,99916.14
2018-08-25T14:18:20.993Z,99908.06
2018-08-25T14:20:49.084Z,99925.53
2018-08-25T14:23:17.155Z,99927.12
2018-08-25T14:25:45.283Z,99936.02
2018-08-25T14:28:13.372Z,99937.76
2018-08-25T14:30:41.610Z,99940.89
2018-08-25T14:33:09.761Z,99934.70
2018-08-25T14:35:39.109Z,99965.05
2018-08-25T14:38:07.199Z,99964.02
2018-08-25T14:40:35.276Z,99965.98
2018-08-25T14:43:03.347Z,99968.25
2018-08-25T14:45:31.508Z,99977.48
2018-08-25T14:47:59.789Z,99984.73
2018-08-25T14:50:30.774Z,99987.16
2018-08-25T14:52:59.528Z,99978.07
2018-08-25T14:55:29.003Z,99980.33
2018-08-25T14:57:57.635Z,99978.59
2018-08-25T15:00:26.008Z,99987.41
2018-08-25T15:02:54.079Z,99981.73
2018-08-25T15:05:22.119Z,99978.95
2018-08-25T15:07:50.191Z,99977.58
2018-08-25T15:10:18.241Z,99984.14
2018-08-25T15:12:46.347Z,99974.23
2018-08-25T15:15:14.395Z,99981.78
2018-08-25T15:17:42.460Z,99978.69
2018-08-25T15:20:10.545Z,99976.95
2018-08-25T15:22:38.735Z,99977.62
2018-08-25T15:25:06.770Z,99978.14
2018-08-25T15:27:34.840Z,99973.33
2018-08-25T15:30:02.931Z,99975.03
2018-08-25T15:32:31.176Z,99980.95
2018-08-25T15:34:59.256Z,99978.50
2018-08-25T15:37:28.002Z,99976.41
2018-08-25T15:39:56.193Z,99977.06
2018-08-25T15:42:24.253Z,99971.17
2018-08-25T15:44:52.371Z,99986.30
2018-08-25T15:47:20.407Z,99986.55
2018-08-25T15:49:48.475Z,99987.17
2018-08-25T15:52:16.609Z,99989.16
2018-08-25T15:54:44.664Z,99988.56
2018-08-25T15:57:12.707Z,99995.13
2018-08-25T15:59:40.770Z,99995.72
2018-08-25T16:02:08.841Z,99995.53
2018-08-25T16:04:37.414Z,99998.12
2018-08-25T16:07:05.724Z,99993.39
2018-08-25T16:09:33.807Z,99990.41
2018-08-25T16:12:01.966Z,100000.72
2018-08-25T16:14:30.092Z,100005.67
2018-08-25T16:16:58.201Z,100005.69
2018-08-25T16:19:26.276Z,99997.95
2018-08-25T16:21:54.329Z,100004.69
2018-08-25T16:24:22.417Z,100008.84
2018-08-25T16:26:50.470Z,100007.88
2018-08-25T16:29:18.559Z,100011.86
2018-08-25T16:31:46.659Z,100011.47
2018-08-25T16:34:17.190Z,100020.20
2018-08-25T16:36:45.267Z,100020.41
2018-08-25T16:39:13.369Z,100028.15
2018-08-25T16:41:41.452Z,100026.38
2018-08-25T16:44:09.547Z,100031.70
2018-08-25T16:46:37.618Z,100032.91
2018-08-25T16:49:05.679Z,100034.89
2018-08-25T16:51:33.751Z,100038.25
2018-08-25T16:54:01.851Z,100039.43
2018-08-25T16:56:29.958Z,100037.65
2018-08-25T16:58:58.034Z,100038.44
2018-08-25T17:01:26.209Z,100044.39
2018-08-25T17:03:54.268Z,100047.56
2018-08-25T17:06:22.449Z,100045.20
2018-08-25T17:08:50.605Z,100049.36
2018-08-25T17:11:18.661Z,100055.08
2018-08-25T17:13:46.720Z,100055.28
2018-08-25T17:16:14.973Z,100048.52
2018-08-25T17:18:43.261Z,100056.84
2018-08-25T17:21:12.487Z,100062.20
2018-08-25T17:23:40.657Z,100059.80
2018-08-25T17:26:08.802Z,100066.91
2018-08-25T17:28:36.889Z,100069.08
2018-08-25T17:31:05.669Z,100070.63
2018-08-25T17:33:33.748Z,100073.20
2018-08-25T17:36:01.979Z,100072.99
2018-08-25T17:38:30.095Z,100075.98
2018-08-25T17:40:58.209Z,100075.18
2018-08-25T17:43:26.353Z,100080.30
2018-08-25T17:45:54.508Z,100080.30
2018-08-25T17:48:22.589Z,100086.84
2018-08-25T17:50:50.688Z,100086.02
2018-08-25T17:53:18.747Z,100085.78
2018-08-25T17:55:46.852Z,100085.17
2018-08-25T17:58:14.904Z,100082.95
2018-08-25T18:00:44.100Z,100095.42
2018-08-25T18:03:12.892Z,100094.22
2018-08-25T18:05:41.307Z,100092.00
2018-08-25T18:08:09.397Z,100095.55
2018-08-25T18:10:37.575Z,100102.67
2018-08-25T18:13:05.647Z,100105.23
2018-08-25T18:15:33.788Z,100101.80
2018-08-25T18:18:02.252Z,100110.45
2018-08-25T18:20:30.363Z,100122.32
2018-08-25T18:22:58.677Z,100124.66
2018-08-25T18:25:26.817Z,100123.41
2018-08-25T18:27:55.114Z,100130.70
2018-08-25T18:30:23.736Z,100138.98
2018-08-25T18:32:51.816Z,100145.43
2018-08-25T18:35:19.925Z,100140.02
2018-08-25T18:37:48.219Z,100142.71
2018-08-25T18:40:16.446Z,100148.83
2018-08-25T18:42:44.859Z,100156.47
2018-08-25T18:45:13.035Z,100152.45
2018-08-25T18:47:41.261Z,100158.48
2018-08-25T18:50:09.507Z,100162.75
2018-08-25T18:52:37.588Z,100163.12
2018-08-25T18:55:05.786Z,100157.47
2018-08-25T18:57:33.830Z,100175.66
2018-08-25T19:00:02.065Z,100175.03
2018-08-25T19:02:30.338Z,100178.72
2018-08-25T19:04:58.453Z,100185.23
2018-08-25T19:07:26.527Z,100188.58
2018-08-25T19:09:54.658Z,100191.30
2018-08-25T19:12:22.897Z,100193.41
2018-08-25T19:14:51.008Z,100199.47
2018-08-25T19:17:19.072Z,100200.58
2018-08-25T19:19:47.216Z,100200.55
2018-08-25T19:22:15.397Z,100207.03
2018-08-25T19:24:43.493Z,100214.51
2018-08-25T19:27:11.642Z,100223.75
2018-08-25T19:29:40.172Z,100227.26
2018-08-25T19:32:08.219Z,100224.47
2018-08-25T19:34:36.302Z,100226.63
2018-08-25T19:37:04.563Z,100232.55
2018-08-25T19:39:32.643Z,100228.39
2018-08-25T19:42:00.780Z,100230.30
2018-08-25T19:44:29.175Z,100229.72
2018-08-25T19:46:57.282Z,100195.81
2018-08-25T19:49:25.538Z,100233.03
2018-08-25T19:51:53.718Z,100245.48
2018-08-25T19:54:21.771Z,100235.35
2018-08-25T19:56:50.218Z,100235.35
2018-08-25T19:59:18.287Z,100229.75
2018-08-25T20:01:46.419Z,100228.44
2018-08-25T20:04:14.681Z,100234.13
2018-08-25T20:06:42.898Z,100230.37
2018-08-25T20:09:11.186Z,100239.02
2018-08-25T20:11:39.319Z,100238.31
2018-08-25T20:14:07.408Z,100239.38
2018-08-25T20:16:35.512Z,100248.41
2018-08-25T20:19:03.726Z,100248.19
2018-08-25T20:21:31.823Z,100248.73
2018-08-25T20:23:59.868Z,100251.05
2018-08-25T20:26:27.940Z,100244.45
2018-08-25T20:28:56.123Z,100247.73
2018-08-25T20:31:24.358Z,100249.94
2018-08-25T20:33:52.406Z,100250.87
2018-08-25T20:36:20.552Z,100252.25
2018-08-25T20:38:48.612Z,100250.02
2018-08-25T20:41:16.972Z,100250.37
2018-08-25T20:43:45.047Z,100251.42
2018-08-25T20:46:13.170Z,100256.56
2018-08-25T20:48:41.295Z,100263.05
2018-08-25T20:51:09.376Z,100265.97
2018-08-25T20:53:37.460Z,100277.19
2018-08-25T20:56:05.747Z,100271.58
2018-08-25T20:58:33.819Z,100272.89
2018-08-25T21:01:01.924Z,100280.18
2018-08-25T21:03:30.024Z,100243.83
2018-08-25T21:05:58.121Z,100295.53
2018-08-25T21:08:26.219Z,100298.56
2018-08-25T21:10:54.296Z,100297.56
2018-08-25T21:13:22.387Z,100287.81
2018-08-25T21:15:50.583Z,100292.91
2018-08-25T21:18:18.661Z,100290.88
2018-08-25T21:20:46.782Z,100291.80
2018-08-25T21:23:14.868Z,100290.38
2018-08-25T21:25:43.007Z,100293.86
2018-08-25T21:28:11.111Z,100296.17
2018-08-25T21:30:39.216Z,100297.12
2018-08-25T21:33:07.308Z,100300.03
2018-08-25T21:35:35.378Z,100306.13
2018-08-25T21:38:03.464Z,100305.13
2018-08-25T21:40:31.560Z,100304.67
2018-08-25T21:42:59.678Z,100303.66
2018-08-25T21:45:27.735Z,100305.39
2018-08-25T21:47:55.845Z,100310.91
2018-08-25T21:50:23.948Z,100316.67
2018-08-25T21:52:52.015Z,100317.82
2018-08-25T21:55:20.076Z,100321.97
2018-08-25T21:57:48.144Z,100325.19
2018-08-25T22:00:16.237Z,100326.77
2018-08-25T22:02:44.377Z,100325.77
2018-08-25T22:05:12.425Z,100317.63
2018-08-25T22:07:40.497Z,100315.78
2018-08-25T22:10:08.579Z,100316.59
2018-08-25T22:12:36.713Z,100316.96
2018-08-25T22:15:04.776Z,100321.22
2018-08-25T22:17:32.897Z,100337.51
2018-08-25T22:20:00.995Z,100330.17
2018-08-25T22:22:29.080Z,100329.94
2018-08-25T22:24:57.178Z,100336.04
2018-08-25T22:27:25.261Z,100341.36
2018-08-25T22:29:53.335Z,100339.38
2018-08-25T22:32:21.466Z,100343.47
2018-08-25T22:34:49.535Z,100345.99
2018-08-25T22:37:17.588Z,100339.00
2018-08-25T22:39:45.699Z,100341.33
2018-08-25T22:42:13.863Z,100344.44
2018-08-25T22:44:41.981Z,100350.53
2018-08-25T22:47:10.054Z,100358.61
2018-08-25T22:49:38.148Z,100353.23
2018-08-25T22:52:06.217Z,100350.81
2018-08-25T22:54:34.292Z,100352.20
2018-08-25T22:57:02.464Z,100349.20
2018-08-25T22:59:30.667Z,100350.16
2018-08-25T23:01:58.753Z,100351.67
2018-08-25T23:04:26.907Z,100353.63
2018-08-25T23:06:54.968Z,100352.05
2018-08-25T23:09:23.020Z,100356.53
2018-08-25T23:11:51.217Z,100359.20
2018-08-25T23:14:19.285Z,100362.81
2018-08-25T23:16:47.787Z,100360.42
2018-08-25T23:19:15.890Z,100356.63
2018-08-25T23:21:43.975Z,100351.02
2018-08-25T23:24:12.041Z,100357.45
2018-08-25T23:26:40.076Z,100365.50
2018-08-25T23:29:08.151Z,100362.30
2018-08-25T23:31:36.287Z,100368.39
2018-08-25T23:34:04.445Z,100366.00
2018-08-25T23:36:32.549Z,100371.05
2018-08-25T23:39:00.633Z,100373.81
2018-08-25T23:41:28.707Z,100377.52
2018-08-25T23:43:56.782Z,100375.91
2018-08-25T23:46:24.828Z,100374.09
2018-08-25T23:48:52.887Z,100376.84
2018-08-25T23:51:21.069Z,100377.80
2018-08-25T23:53:49.155Z,100380.12
2018-08-25T23:56:17.225Z,100381.03
2018-08-25T23:58:45.376Z,100383.59
